Time;durP1;ratioP1;P1;durP2;ratioP2;P2;SDS_P1;SDS_P2;PMS_P1;PMS_P2;Temp;Humidity;BMP_temperature;BMP_pressure;BME280_temperature;BME280_humidity;BME280_pressure;Samples;Min_cycle;Max_cycle;Signal;HPM_P1;HPM_P2
2022/12/08 00:01:23;;;;;;;2.40;2.20;;;17.60;60.30;;;;;;4993296;28;20192;-68
2022/12/08 00:03:50;;;;;;;2.67;2.28;;;17.60;60.30;;;;;;4994248;28;20172;-68
2022/12/08 00:09:40;;;;;;;2.50;2.30;;;17.60;60.40;;;;;;4994538;28;20213;-68
2022/12/08 00:12:15;;;;;;;2.50;2.30;;;17.60;60.30;;;;;;4994329;28;20180;-69
2022/12/08 00:14:46;;;;;;;1.95;1.85;;;17.60;60.20;;;;;;4994235;28;20188;-68
2022/12/08 00:17:15;;;;;;;2.58;2.38;;;17.60;60.20;;;;;;4978127;28;20220;-68
2022/12/08 00:19:42;;;;;;;3.05;2.30;;;17.60;60.20;;;;;;4994003;28;20177;-68
2022/12/08 00:22:10;;;;;;;2.60;2.40;;;17.60;60.20;;;;;;4995228;28;20177;-68
2022/12/08 00:24:38;;;;;;;2.65;1.83;;;17.60;60.30;;;;;;4977941;28;20213;-68
2022/12/08 00:27:08;;;;;;;2.40;2.20;;;17.60;60.30;;;;;;4977754;28;20213;-68
2022/12/08 00:29:34;;;;;;;2.38;2.17;;;17.60;60.30;;;;;;4994180;28;20197;-69
2022/12/08 00:31:59;;;;;;;2.60;2.40;;;17.60;60.30;;;;;;4993811;28;20254;-68
2022/12/08 00:34:25;;;;;;;2.63;2.42;;;17.60;60.30;;;;;;4977329;28;20230;-68
2022/12/08 00:36:51;;;;;;;2.78;2.20;;;17.60;60.30;;;;;;4994843;28;20213;-68
2022/12/08 00:39:18;;;;;;;2.65;2.30;;;17.60;60.30;;;;;;4977499;28;20197;-68
2022/12/08 00:44:28;;;;;;;2.55;2.35;;;17.60;60.30;;;;;;4994701;28;20169;-68
2022/12/08 00:46:54;;;;;;;2.60;2.40;;;17.60;60.30;;;;;;4993294;28;20208;-68
2022/12/08 00:49:21;;;;;;;2.38;2.17;;;17.60;60.30;;;;;;4977229;28;20189;-69
2022/12/08 00:51:46;;;;;;;3.28;2.67;;;17.60;60.20;;;;;;4977114;28;20202;-68
2022/12/08 00:54:12;;;;;;;2.78;2.58;;;17.60;60.20;;;;;;4977314;28;20177;-68
2022/12/08 00:56:38;;;;;;;2.72;2.53;;;17.60;60.20;;;;;;4993228;28;20216;-68
2022/12/08 00:59:06;;;;;;;2.50;2.30;;;17.60;60.20;;;;;;4993247;28;20189;-68
2022/12/08 01:01:34;;;;;;;2.58;2.38;;;17.60;60.10;;;;;;4977128;28;20196;-69
2022/12/08 01:04:05;;;;;;;2.53;2.33;;;17.60;60.10;;;;;;4976838;28;20191;-68
2022/12/08 01:06:34;;;;;;;3.47;3.17;;;17.60;60.20;;;;;;4993007;28;20352;-68
2022/12/08 01:09:05;;;;;;;3.00;2.80;;;17.60;60.20;;;;;;4976879;28;20224;-68
2022/12/08 01:11:31;;;;;;;2.72;2.47;;;17.60;60.20;;;;;;4992923;28;20177;-67
2022/12/08 01:13:57;;;;;;;3.08;2.78;;;17.50;60.00;;;;;;4994142;28;20185;-68
2022/12/08 01:16:26;;;;;;;3.28;2.97;;;17.60;60.20;;;;;;4993969;28;20221;-68
2022/12/08 01:18:56;;;;;;;3.42;2.80;;;17.60;60.20;;;;;;4993051;28;20208;-68
2022/12/08 01:21:22;;;;;;;3.00;2.80;;;17.60;60.30;;;;;;4994407;28;20204;-68
2022/12/08 01:23:48;;;;;;;3.00;2.75;;;17.60;60.20;;;;;;4992665;28;20223;-68
2022/12/08 01:26:16;;;;;;;2.78;2.58;;;17.60;60.20;;;;;;4993716;28;20219;-68
2022/12/08 01:28:43;;;;;;;3.13;2.90;;;17.60;60.20;;;;;;4992832;28;20228;-68
2022/12/08 01:31:16;;;;;;;2.85;2.60;;;17.60;60.00;;;;;;4976845;28;20223;-68
2022/12/08 01:33:43;;;;;;;2.83;2.58;;;17.60;60.10;;;;;;4976286;28;20200;-69
2022/12/08 01:36:22;;;;;;;2.90;2.53;;;17.60;60.00;;;;;;4976516;28;20248;-68
2022/12/08 01:38:48;;;;;;;2.90;2.70;;;17.60;60.10;;;;;;4976414;28;20259;-68
2022/12/08 01:41:24;;;;;;;2.90;2.60;;;17.60;60.10;;;;;;4976196;28;20239;-68
2022/12/08 01:44:12;;;;;;;3.05;2.80;;;17.60;60.00;;;;;;4992365;28;20169;-68
2022/12/08 01:46:44;;;;;;;3.28;2.97;;;17.60;60.10;;;;;;4992266;28;20255;-68
2022/12/08 01:49:22;;;;;;;2.90;2.70;;;17.50;60.00;;;;;;4992380;28;20188;-68
2022/12/08 01:52:21;;;;;;;3.40;2.67;;;17.60;60.10;;;;;;4992329;28;20181;-69
2022/12/08 01:54:54;;;;;;;3.20;2.90;;;17.50;60.00;;;;;;4984244;28;20204;-68
2022/12/08 01:57:32;;;;;;;2.70;2.50;;;17.50;59.90;;;;;;4976301;28;20209;-68
2022/12/08 02:00:06;;;;;;;2.95;2.75;;;17.60;60.00;;;;;;4976412;28;20272;-68
2022/12/08 02:02:45;;;;;;;2.95;2.67;;;17.50;59.90;;;;;;4992402;28;20196;-68
2022/12/08 02:05:12;;;;;;;2.85;2.65;;;17.60;60.00;;;;;;4975896;28;20272;-68
2022/12/08 02:07:38;;;;;;;3.10;2.78;;;17.50;60.00;;;;;;5008432;28;20250;-68
2022/12/08 02:10:04;;;;;;;2.85;2.65;;;17.60;60.00;;;;;;4992041;28;20267;-68
2022/12/08 02:12:30;;;;;;;2.80;2.60;;;17.50;59.90;;;;;;4973913;28;20197;-68
2022/12/08 02:14:58;;;;;;;2.40;2.20;;;17.50;59.90;;;;;;4973617;28;20190;-68
2022/12/08 02:17:57;;;;;;;2.80;2.60;;;17.50;59.90;;;;;;4972637;28;20287;-68
2022/12/08 02:20:45;;;;;;;2.40;2.25;;;17.60;60.00;;;;;;4972994;28;20185;-68
2022/12/08 02:23:39;;;;;;;2.50;2.30;;;17.50;59.80;;;;;;4970971;28;20189;-67
2022/12/08 02:26:59;;;;;;;2.95;2.40;;;17.50;59.80;;;;;;4972169;28;20223;-67
2022/12/08 02:30:03;;;;;;;2.80;2.60;;;17.50;59.80;;;;;;4972479;28;20182;-68
2022/12/08 02:32:41;;;;;;;3.10;2.80;;;17.50;59.70;;;;;;4972797;28;20267;-68
2022/12/08 02:35:56;;;;;;;2.50;2.30;;;17.50;59.80;;;;;;4972139;28;20190;-68
2022/12/08 02:38:41;;;;;;;2.78;2.50;;;17.50;59.80;;;;;;4959252;28;20205;-68
2022/12/08 02:41:50;;;;;;;2.35;2.15;;;17.50;59.80;;;;;;4972291;28;20584;-67
2022/12/08 02:44:33;;;;;;;2.47;2.28;;;17.50;59.80;;;;;;4963445;28;20263;-68
2022/12/08 02:47:15;;;;;;;2.28;2.13;;;17.50;59.70;;;;;;4988345;28;20217;-67
2022/12/08 02:49:41;;;;;;;2.60;2.40;;;17.50;59.80;;;;;;4972151;28;20281;-68
2022/12/08 02:52:27;;;;;;;2.30;2.10;;;17.50;59.80;;;;;;4988338;28;20211;-68
2022/12/08 02:55:06;;;;;;;2.58;2.38;;;17.50;59.70;;;;;;4988341;28;20197;-67
2022/12/08 02:57:44;;;;;;;2.45;2.25;;;17.50;59.70;;;;;;4988416;28;20217;-68
2022/12/08 03:00:14;;;;;;;2.33;2.13;;;17.50;59.70;;;;;;4972146;28;20235;-68
2022/12/08 03:03:01;;;;;;;2.25;2.05;;;17.50;59.70;;;;;;4972604;28;20194;-68
2022/12/08 03:05:52;;;;;;;2.38;2.17;;;17.50;59.70;;;;;;4972116;28;20292;-67
2022/12/08 03:08:45;;;;;;;2.30;2.10;;;17.50;59.70;;;;;;4972309;28;20240;-67
2022/12/08 03:11:27;;;;;;;2.40;2.20;;;17.50;59.80;;;;;;4971902;28;20667;-67
2022/12/08 03:13:59;;;;;;;2.20;2.00;;;17.50;59.70;;;;;;4973094;28;20213;-67
2022/12/08 03:16:30;;;;;;;2.58;2.08;;;17.50;59.70;;;;;;4977441;28;20235;-68
2022/12/08 03:19:04;;;;;;;2.22;2.10;;;17.50;59.60;;;;;;4991386;28;20185;-68
2022/12/08 03:21:33;;;;;;;2.40;2.20;;;17.40;59.60;;;;;;4992769;28;20224;-67
2022/12/08 03:24:05;;;;;;;2.35;2.15;;;17.50;59.60;;;;;;4991240;28;20216;-67
2022/12/08 03:26:44;;;;;;;2.30;2.10;;;17.50;59.60;;;;;;4991093;28;20890;-68
2022/12/08 03:29:11;;;;;;;2.20;1.77;;;17.50;59.50;;;;;;4988256;28;20224;-68
2022/12/08 03:31:44;;;;;;;2.30;2.10;;;17.50;59.60;;;;;;4988391;28;20276;-68
2022/12/08 03:34:13;;;;;;;2.30;2.10;;;17.50;59.60;;;;;;4971833;28;20255;-68
2022/12/08 03:36:39;;;;;;;2.20;2.10;;;17.50;59.60;;;;;;4975149;28;20252;-68
2022/12/08 03:39:04;;;;;;;2.25;1.95;;;17.50;59.60;;;;;;4959652;28;20228;-68
2022/12/08 03:41:30;;;;;;;2.30;2.10;;;17.50;59.60;;;;;;4991874;28;20189;-68
2022/12/08 03:43:58;;;;;;;2.33;2.13;;;17.50;59.60;;;;;;4975010;28;20308;-69
2022/12/08 03:46:27;;;;;;;1.98;1.88;;;17.50;59.60;;;;;;4976287;28;20252;-68
2022/12/08 03:48:54;;;;;;;2.70;2.20;;;17.50;59.60;;;;;;4959527;28;20278;-68
2022/12/08 03:51:20;;;;;;;2.30;2.10;;;17.50;59.60;;;;;;4959224;28;20668;-68
2022/12/08 03:53:46;;;;;;;2.10;2.00;;;17.50;59.50;;;;;;4991431;28;20185;-68
2022/12/08 03:56:37;;;;;;;2.10;1.90;;;17.50;59.50;;;;;;4976132;28;20261;-68
2022/12/08 03:59:05;;;;;;;1.95;1.85;;;17.50;59.40;;;;;;4975033;28;20198;-68
2022/12/08 04:01:31;;;;;;;1.60;1.50;;;17.50;59.40;;;;;;4991279;28;20192;-68
2022/12/08 04:03:57;;;;;;;2.40;2.20;;;17.50;59.50;;;;;;4975006;28;20189;-68
2022/12/08 04:06:23;;;;;;;2.13;2.00;;;17.50;59.50;;;;;;4991019;28;20201;-68
2022/12/08 04:08:51;;;;;;;2.30;2.10;;;17.50;59.50;;;;;;4974942;28;20193;-68
2022/12/08 04:11:17;;;;;;;2.30;2.10;;;17.40;59.30;;;;;;4958504;28;20178;-68
2022/12/08 04:13:44;;;;;;;1.90;1.80;;;17.50;59.40;;;;;;4974485;28;20222;-68
2022/12/08 04:16:23;;;;;;;2.17;2.00;;;17.50;59.40;;;;;;4974546;28;20225;-68
2022/12/08 04:18:50;;;;;;;2.30;2.10;;;17.50;59.40;;;;;;4958650;28;20273;-68
2022/12/08 04:21:17;;;;;;;1.80;1.70;;;17.50;59.40;;;;;;4958900;28;20173;-68
2022/12/08 04:23:42;;;;;;;2.20;2.00;;;17.40;59.40;;;;;;4974344;28;20185;-67
2022/12/08 04:26:10;;;;;;;2.00;1.88;;;17.40;59.30;;;;;;4990822;28;20272;-68
2022/12/08 04:28:36;;;;;;;2.15;2.05;;;17.50;59.40;;;;;;4974635;28;20198;-68
2022/12/08 04:31:02;;;;;;;2.40;2.30;;;17.50;59.30;;;;;;4974325;28;20185;-68
2022/12/08 04:33:28;;;;;;;2.10;2.00;;;17.50;59.30;;;;;;4974347;28;20272;-67
2022/12/08 04:35:53;;;;;;;2.20;2.00;;;17.50;59.30;;;;;;4958217;28;20217;-68
2022/12/08 04:38:19;;;;;;;2.10;2.00;;;17.40;59.20;;;;;;4974616;28;20227;-67
2022/12/08 04:40:45;;;;;;;2.20;2.00;;;17.50;59.30;;;;;;4990315;28;20185;-68
2022/12/08 04:43:11;;;;;;;2.03;1.85;;;17.50;59.30;;;;;;4974534;28;20186;-68
2022/12/08 04:45:41;;;;;;;1.98;1.88;;;17.50;59.20;;;;;;4974057;28;20185;-69
2022/12/08 04:48:08;;;;;;;1.80;1.70;;;17.40;59.20;;;;;;4973832;28;20185;-68
2022/12/08 04:50:33;;;;;;;2.00;1.90;;;17.40;59.20;;;;;;4974000;28;20200;-69
2022/12/08 04:52:59;;;;;;;1.83;1.73;;;17.40;59.10;;;;;;4973994;28;20197;-68
2022/12/08 04:55:25;;;;;;;2.00;1.90;;;17.40;59.10;;;;;;4974051;28;20217;-68
2022/12/08 04:57:50;;;;;;;1.80;1.70;;;17.40;59.20;;;;;;4973766;28;20217;-68
2022/12/08 05:00:17;;;;;;;2.03;1.90;;;17.40;59.20;;;;;;4973827;28;20189;-68
2022/12/08 05:02:42;;;;;;;2.20;2.00;;;17.40;59.10;;;;;;4990236;28;20174;-68
2022/12/08 05:05:09;;;;;;;2.15;1.90;;;17.40;59.20;;;;;;4957667;28;20197;-68
2022/12/08 05:07:35;;;;;;;1.90;1.80;;;17.40;59.10;;;;;;4973879;28;20224;-68
2022/12/08 05:10:01;;;;;;;2.10;1.90;;;17.40;59.20;;;;;;4973733;28;20662;-69
2022/12/08 05:12:26;;;;;;;2.33;2.13;;;17.40;59.10;;;;;;4957877;28;20192;-68
2022/12/08 05:14:52;;;;;;;1.98;1.88;;;17.40;59.10;;;;;;4972761;28;20185;-69
2022/12/08 05:17:18;;;;;;;2.17;1.98;;;17.40;59.00;;;;;;4973273;28;20221;-68
2022/12/08 05:19:44;;;;;;;1.77;1.67;;;17.40;59.00;;;;;;4989604;28;20185;-68
2022/12/08 05:22:10;;;;;;;2.20;2.00;;;17.40;59.10;;;;;;4986836;28;20203;-68
2022/12/08 05:24:35;;;;;;;2.40;2.20;;;17.40;59.00;;;;;;4992559;28;20267;-68
2022/12/08 05:27:01;;;;;;;2.40;2.20;;;17.40;59.00;;;;;;4993826;28;20240;-68
2022/12/08 05:29:27;;;;;;;2.30;2.10;;;17.40;59.00;;;;;;4976440;28;20188;-68
2022/12/08 05:31:53;;;;;;;2.70;2.50;;;17.40;59.00;;;;;;4992937;28;20184;-68
2022/12/08 05:34:19;;;;;;;2.65;2.45;;;17.40;58.90;;;;;;4976528;28;20185;-68
2022/12/08 05:36:44;;;;;;;2.50;2.30;;;17.40;58.90;;;;;;4976534;28;20231;-68
2022/12/08 05:39:12;;;;;;;2.70;2.50;;;17.40;59.50;;;;;;4992667;28;20192;-68
2022/12/08 05:41:39;;;;;;;3.13;2.83;;;17.40;58.90;;;;;;4992486;28;20270;-68
2022/12/08 05:44:05;;;;;;;2.90;2.60;;;17.40;58.90;;;;;;4992416;28;20185;-68
2022/12/08 05:46:31;;;;;;;3.25;2.95;;;17.40;58.70;;;;;;4992799;28;20270;-69
2022/12/08 05:48:59;;;;;;;2.88;2.53;;;17.30;58.60;;;;;;4976359;28;20185;-69
2022/12/08 05:51:25;;;;;;;2.40;2.20;;;17.40;58.90;;;;;;4976464;28;20228;-69
2022/12/08 05:53:52;;;;;;;2.92;2.72;;;17.40;58.80;;;;;;4992354;28;20185;-69
2022/12/08 05:56:19;;;;;;;2.70;2.50;;;17.40;58.80;;;;;;4992066;28;20212;-69
2022/12/08 05:58:46;;;;;;;2.72;2.53;;;17.40;58.80;;;;;;4975555;28;20181;-70
2022/12/08 06:01:30;;;;;;;3.20;2.88;;;17.40;58.80;;;;;;4991906;28;20188;-69
2022/12/08 06:03:58;;;;;;;2.70;2.50;;;17.40;58.80;;;;;;4991984;28;20199;-69
2022/12/08 06:06:25;;;;;;;3.33;3.03;;;17.40;59.00;;;;;;4993232;28;20621;-69
2022/12/08 06:08:51;;;;;;;3.20;2.90;;;17.40;58.80;;;;;;4975893;28;20181;-69
2022/12/08 06:11:27;;;;;;;3.10;2.80;;;17.40;58.60;;;;;;4975941;28;20279;-70
2022/12/08 06:13:55;;;;;;;2.70;2.50;;;17.40;58.70;;;;;;4975660;28;20227;-69
2022/12/08 06:16:23;;;;;;;3.58;3.28;;;17.40;58.60;;;;;;4991835;28;20316;-69
2022/12/08 06:18:48;;;;;;;2.83;2.63;;;17.40;58.70;;;;;;4991946;28;20272;-70
2022/12/08 06:21:16;;;;;;;3.05;2.75;;;17.40;58.60;;;;;;4991784;28;20279;-70
2022/12/08 06:23:42;;;;;;;3.30;3.00;;;17.40;58.60;;;;;;4975333;28;20193;-69
2022/12/08 06:26:12;;;;;;;3.35;3.05;;;17.40;58.60;;;;;;4991716;28;20207;-69
2022/12/08 06:28:40;;;;;;;3.22;2.92;;;17.40;58.50;;;;;;4991442;28;20203;-69
2022/12/08 06:31:09;;;;;;;3.38;2.80;;;17.40;58.50;;;;;;4975304;28;20190;-69
2022/12/08 06:33:37;;;;;;;3.00;2.70;;;17.40;58.60;;;;;;4972117;28;20217;-68
2022/12/08 06:36:04;;;;;;;3.03;2.83;;;17.40;58.50;;;;;;4956223;28;20678;-69
2022/12/08 06:38:30;;;;;;;3.67;3.38;;;17.40;58.50;;;;;;4972626;28;20212;-70
2022/12/08 06:40:57;;;;;;;3.28;2.97;;;17.30;58.40;;;;;;4982065;28;20649;-71
2022/12/08 06:43:24;;;;;;;3.35;3.05;;;17.30;58.60;;;;;;5001402;28;20184;-70
2022/12/08 06:45:50;;;;;;;3.25;2.85;;;17.30;58.40;;;;;;4995054;28;20192;-70
2022/12/08 06:48:17;;;;;;;3.17;2.88;;;17.40;58.50;;;;;;5011570;28;20220;-69
2022/12/08 06:50:43;;;;;;;3.90;3.25;;;17.30;58.40;;;;;;5011168;28;20318;-69
2022/12/08 06:53:12;;;;;;;3.45;3.15;;;17.40;58.50;;;;;;5011004;28;20184;-69
2022/12/08 06:55:46;;;;;;;3.50;3.20;;;17.30;58.40;;;;;;5000334;28;20216;-69
2022/12/08 06:58:13;;;;;;;3.53;3.22;;;17.30;58.50;;;;;;4975218;28;20275;-70
2022/12/08 07:00:40;;;;;;;3.47;3.17;;;17.30;58.40;;;;;;4975160;28;20181;-70
2022/12/08 07:03:08;;;;;;;3.17;2.97;;;17.30;58.40;;;;;;4991628;28;20185;-70
2022/12/08 07:05:35;;;;;;;3.60;3.28;;;17.30;58.50;;;;;;4991507;28;20197;-69
2022/12/08 07:08:01;;;;;;;3.13;2.90;;;17.30;58.40;;;;;;4975196;28;20267;-70
2022/12/08 07:10:27;;;;;;;3.60;3.25;;;17.30;58.40;;;;;;4998377;28;20735;-70
2022/12/08 07:12:53;;;;;;;3.42;3.10;;;17.30;58.40;;;;;;4992813;28;20196;-70
2022/12/08 07:15:19;;;;;;;3.47;3.17;;;17.30;58.40;;;;;;4998202;28;20279;-70
2022/12/08 07:17:47;;;;;;;3.22;2.92;;;17.30;58.40;;;;;;5014423;28;20597;-70
2022/12/08 07:20:13;;;;;;;3.72;3.22;;;17.30;58.40;;;;;;4997998;28;20184;-70
2022/12/08 07:22:39;;;;;;;3.30;3.00;;;17.30;58.40;;;;;;4997665;28;20192;-70
2022/12/08 07:25:05;;;;;;;3.75;3.15;;;17.30;58.40;;;;;;5013972;28;20180;-70
2022/12/08 07:27:31;;;;;;;3.83;3.50;;;17.30;58.40;;;;;;4983673;28;20204;-70
2022/12/08 07:29:57;;;;;;;4.00;3.70;;;17.30;58.40;;;;;;4977911;28;20184;-70
2022/12/08 07:32:23;;;;;;;4.00;3.60;;;17.30;58.40;;;;;;4994631;28;20629;-70
2022/12/08 07:34:49;;;;;;;4.30;3.85;;;17.30;58.40;;;;;;4977967;28;20189;-70
2022/12/08 07:37:14;;;;;;;4.53;3.95;;;17.30;58.40;;;;;;4994155;28;20304;-70
2022/12/08 07:39:40;;;;;;;3.90;3.60;;;17.30;58.40;;;;;;4978136;28;20197;-70
2022/12/08 07:42:06;;;;;;;4.30;3.90;;;17.30;58.40;;;;;;4978416;28;20188;-70
2022/12/08 07:44:31;;;;;;;4.43;4.03;;;17.30;58.40;;;;;;4978210;28;20195;-70
2022/12/08 07:46:57;;;;;;;4.65;4.20;;;17.30;58.50;;;;;;4994139;28;20219;-70
2022/12/08 07:49:23;;;;;;;4.82;4.32;;;17.30;58.40;;;;;;4994342;28;20207;-70
2022/12/08 07:51:49;;;;;;;4.75;4.35;;;17.30;58.30;;;;;;4994163;28;20200;-70
2022/12/08 07:54:14;;;;;;;5.40;4.90;;;17.30;58.30;;;;;;4993942;28;20200;-70
2022/12/08 07:56:40;;;;;;;5.22;4.68;;;17.30;58.10;;;;;;4977630;28;20721;-70
2022/12/08 07:59:06;;;;;;;6.07;4.88;;;17.30;58.20;;;;;;5010335;28;20181;-70
2022/12/08 08:01:33;;;;;;;5.20;4.70;;;17.30;58.20;;;;;;4994062;28;20691;-70
2022/12/08 08:04:03;;;;;;;6.45;5.13;;;17.30;58.20;;;;;;4977602;28;20772;-70
2022/12/08 08:06:30;;;;;;;5.55;5.05;;;17.30;58.10;;;;;;4994095;28;20228;-70
2022/12/08 08:08:56;;;;;;;5.60;5.00;;;17.30;58.10;;;;;;4977576;28;20192;-70
2022/12/08 08:11:22;;;;;;;6.15;5.38;;;17.30;58.10;;;;;;4994931;28;20679;-70
2022/12/08 08:13:52;;;;;;;6.60;5.20;;;17.30;58.10;;;;;;5009965;28;20573;-70
2022/12/08 08:16:18;;;;;;;5.65;5.00;;;17.30;58.20;;;;;;4977415;28;20220;-70
2022/12/08 08:18:48;;;;;;;6.20;5.60;;;17.30;58.20;;;;;;4977559;28;20181;-70
2022/12/08 08:21:16;;;;;;;6.28;5.72;;;17.30;58.20;;;;;;4993552;28;20271;-70
2022/12/08 08:23:42;;;;;;;6.38;5.78;;;17.30;58.10;;;;;;4992635;28;20185;-70
2022/12/08 08:26:08;;;;;;;6.50;5.90;;;17.30;58.20;;;;;;4993210;28;20219;-70
2022/12/08 08:28:35;;;;;;;7.43;5.93;;;17.30;58.10;;;;;;4977562;28;20195;-70
2022/12/08 08:31:01;;;;;;;6.70;6.03;;;17.30;58.10;;;;;;4993500;28;20185;-71
2022/12/08 08:33:27;;;;;;;6.75;6.15;;;17.30;58.10;;;;;;4976776;28;20606;-70
2022/12/08 08:35:56;;;;;;;6.88;5.97;;;17.30;58.10;;;;;;4976635;28;20311;-70
2022/12/08 08:38:21;;;;;;;6.90;6.20;;;17.30;58.10;;;;;;4993424;28;20606;-70
2022/12/08 08:40:47;;;;;;;7.28;6.30;;;17.30;58.20;;;;;;4977373;28;20180;-70
2022/12/08 08:43:27;;;;;;;8.02;6.70;;;17.30;58.10;;;;;;4993268;28;20181;-70
2022/12/08 08:46:00;;;;;;;7.00;6.30;;;17.30;58.00;;;;;;4992976;28;20216;-70
2022/12/08 08:48:28;;;;;;;7.18;6.32;;;17.30;58.00;;;;;;4994568;28;20185;-70
2022/12/08 08:50:55;;;;;;;7.32;6.63;;;17.30;58.10;;;;;;4993100;28;20189;-70
2022/12/08 08:53:21;;;;;;;8.10;7.30;;;17.30;58.00;;;;;;4992937;28;20199;-70
2022/12/08 08:55:47;;;;;;;7.57;6.88;;;17.30;58.00;;;;;;4993877;28;20197;-70
2022/12/08 08:58:13;;;;;;;7.95;7.18;;;17.30;58.10;;;;;;4993021;28;20189;-70
2022/12/08 09:00:39;;;;;;;7.95;7.13;;;17.30;58.10;;;;;;4976599;28;20228;-71
2022/12/08 09:03:05;;;;;;;8.45;7.55;;;17.30;58.00;;;;;;4976675;28;20215;-70
2022/12/08 09:05:30;;;;;;;7.80;7.00;;;17.30;58.00;;;;;;4992545;28;20259;-70
2022/12/08 09:07:57;;;;;;;7.53;6.82;;;17.30;58.00;;;;;;4992672;28;20700;-70
2022/12/08 09:10:23;;;;;;;7.65;6.78;;;17.30;58.00;;;;;;4993877;28;20222;-70
2022/12/08 09:12:49;;;;;;;7.93;7.10;;;17.30;58.10;;;;;;4992060;28;20189;-69
2022/12/08 09:15:15;;;;;;;8.07;7.28;;;17.30;58.60;;;;;;4976321;28;20188;-70
2022/12/08 09:17:40;;;;;;;8.32;7.50;;;17.30;58.00;;;;;;4976419;28;20213;-70
2022/12/08 09:20:07;;;;;;;8.73;7.82;;;17.30;58.00;;;;;;4976269;28;20196;-71
2022/12/08 09:22:32;;;;;;;9.20;7.82;;;17.30;58.10;;;;;;5008918;28;20177;-70
2022/12/08 09:24:58;;;;;;;8.70;7.90;;;17.30;58.00;;;;;;4975954;28;20180;-70
2022/12/08 09:27:24;;;;;;;8.25;7.47;;;17.40;58.10;;;;;;4976196;28;20294;-70
2022/12/08 09:29:49;;;;;;;8.75;7.90;;;17.30;58.00;;;;;;4976063;28;20255;-70
2022/12/08 09:32:15;;;;;;;8.30;7.50;;;17.30;58.00;;;;;;4975417;28;20189;-71
2022/12/08 09:34:41;;;;;;;8.80;7.90;;;17.30;58.00;;;;;;4992181;28;20192;-70
2022/12/08 09:37:06;;;;;;;8.45;7.65;;;17.30;58.00;;;;;;4992957;28;20225;-70
2022/12/08 09:39:32;;;;;;;8.88;7.97;;;17.40;58.10;;;;;;4976351;28;20181;-70
2022/12/08 09:42:05;;;;;;;8.02;7.30;;;17.30;58.00;;;;;;4975970;28;20195;-70
2022/12/08 09:45:01;;;;;;;8.40;7.55;;;17.30;58.10;;;;;;4992112;28;20189;-70
2022/12/08 09:47:34;;;;;;;8.50;7.70;;;17.30;58.00;;;;;;4992075;28;20266;-70
2022/12/08 09:50:18;;;;;;;7.93;7.20;;;17.30;58.00;;;;;;4975817;28;20185;-70
2022/12/08 09:52:58;;;;;;;8.77;7.82;;;17.40;58.20;;;;;;4991980;28;20195;-70
2022/12/08 09:55:39;;;;;;;8.43;7.47;;;17.40;58.20;;;;;;4991684;28;20192;-70
2022/12/08 09:58:19;;;;;;;7.72;7.03;;;17.40;58.70;;;;;;4992112;28;20211;-70
2022/12/08 10:00:46;;;;;;;7.93;7.18;;;17.40;58.10;;;;;;4991799;28;20199;-70
2022/12/08 10:03:12;;;;;;;7.90;7.10;;;17.40;58.10;;;;;;4991771;28;20215;-70
2022/12/08 10:06:06;;;;;;;7.57;6.88;;;17.40;58.10;;;;;;4991521;28;20195;-70
2022/12/08 10:09:05;;;;;;;8.73;7.45;;;17.40;58.20;;;;;;4991723;28;20193;-70
2022/12/08 10:11:53;;;;;;;7.70;6.93;;;17.40;58.20;;;;;;4991736;28;20196;-70
2022/12/08 10:14:40;;;;;;;8.05;7.25;;;17.40;58.20;;;;;;4991339;28;20196;-71
2022/12/08 10:17:25;;;;;;;7.30;6.45;;;17.40;58.10;;;;;;4975461;28;20227;-70
2022/12/08 10:20:01;;;;;;;7.47;6.68;;;17.40;58.20;;;;;;4975371;28;20279;-70
2022/12/08 10:22:34;;;;;;;7.47;6.70;;;17.40;58.30;;;;;;4991673;28;20180;-70
2022/12/08 10:25:15;;;;;;;7.07;6.40;;;17.40;58.20;;;;;;4975191;28;20575;-70
2022/12/08 10:27:41;;;;;;;7.45;6.57;;;17.40;58.20;;;;;;4991470;28;20240;-70
2022/12/08 10:30:16;;;;;;;6.75;6.15;;;17.40;58.20;;;;;;4975287;28;20261;-70
2022/12/08 10:32:46;;;;;;;7.22;6.53;;;17.40;58.20;;;;;;4975304;28;20695;-70
2022/12/08 10:35:16;;;;;;;6.50;5.90;;;17.40;58.20;;;;;;4974987;28;20223;-70
2022/12/08 10:37:56;;;;;;;6.88;6.28;;;17.40;58.80;;;;;;4979297;28;20236;-70
2022/12/08 10:40:27;;;;;;;6.90;6.20;;;17.40;58.20;;;;;;4971863;28;20193;-70
2022/12/08 10:42:57;;;;;;;6.22;5.65;;;17.40;58.30;;;;;;4972065;28;20221;-70
2022/12/08 10:45:29;;;;;;;6.05;5.10;;;17.40;58.30;;;;;;4956232;28;20193;-70
2022/12/08 10:48:19;;;;;;;6.65;5.93;;;17.40;58.30;;;;;;4975871;28;20260;-70
2022/12/08 10:50:51;;;;;;;6.00;5.40;;;17.40;58.40;;;;;;4977953;28;20225;-70
2022/12/08 10:53:27;;;;;;;5.78;5.28;;;17.40;58.40;;;;;;5012910;28;20248;-69
2022/12/08 10:56:02;;;;;;;6.07;5.47;;;17.40;58.30;;;;;;5008690;28;20220;-70
2022/12/08 10:58:39;;;;;;;6.10;5.50;;;17.40;58.40;;;;;;5005512;28;20188;-70
2022/12/08 11:01:24;;;;;;;5.80;5.22;;;17.40;58.30;;;;;;4979539;28;20180;-70
2022/12/08 11:03:56;;;;;;;5.50;5.00;;;17.40;58.30;;;;;;4979627;28;20204;-70
2022/12/08 11:06:36;;;;;;;5.65;5.15;;;17.40;58.30;;;;;;4986065;28;20212;-69
2022/12/08 11:09:14;;;;;;;6.15;5.57;;;17.40;58.30;;;;;;5006367;28;20202;-69
2022/12/08 11:11:55;;;;;;;5.03;4.43;;;17.40;58.40;;;;;;4990391;28;20191;-70
2022/12/08 11:14:29;;;;;;;5.38;4.85;;;17.40;58.40;;;;;;5007190;28;20208;-70
2022/12/08 11:17:08;;;;;;;5.43;4.93;;;17.40;58.40;;;;;;5027890;28;20312;-69
2022/12/08 11:19:44;;;;;;;5.25;4.85;;;17.40;58.40;;;;;;5013542;28;20640;-69
2022/12/08 11:22:32;;;;;;;5.60;5.10;;;17.40;58.20;;;;;;4978925;28;20185;-70
2022/12/08 11:25:10;;;;;;;5.95;5.38;;;17.40;58.30;;;;;;4994946;28;20192;-70
2022/12/08 11:27:43;;;;;;;4.65;4.25;;;17.50;58.50;;;;;;4978370;28;20288;-70
2022/12/08 11:30:23;;;;;;;4.38;3.97;;;17.40;58.80;;;;;;4995073;28;20177;-69
2022/12/08 11:33:17;;;;;;;4.43;4.03;;;17.50;58.40;;;;;;4997597;28;20177;-69
2022/12/08 11:35:48;;;;;;;5.13;4.60;;;17.40;58.50;;;;;;5013606;28;20208;-69
2022/12/08 11:38:20;;;;;;;4.97;4.55;;;17.50;58.60;;;;;;5018172;28;20178;-69
2022/12/08 11:40:50;;;;;;;5.03;4.63;;;17.50;58.50;;;;;;4984078;28;20189;-70
2022/12/08 11:43:29;;;;;;;4.28;3.88;;;17.50;58.50;;;;;;5004245;28;20181;-69
2022/12/08 11:46:00;;;;;;;4.82;4.32;;;17.50;58.50;;;;;;4993306;28;20199;-69
2022/12/08 11:48:38;;;;;;;4.78;4.38;;;17.40;58.40;;;;;;4998528;28;20184;-69
2022/12/08 11:51:41;;;;;;;5.20;4.70;;;17.40;58.40;;;;;;4980965;28;20271;-70
2022/12/08 11:54:49;;;;;;;4.60;4.20;;;17.50;58.50;;;;;;4996717;28;20191;-69
2022/12/08 11:57:17;;;;;;;3.80;3.50;;;17.50;58.50;;;;;;4934278;28;20237;-70
2022/12/08 11:59:53;;;;;;;4.22;3.83;;;17.50;58.50;;;;;;4975792;28;20233;-69
2022/12/08 12:02:28;;;;;;;4.20;3.60;;;17.50;58.50;;;;;;5008395;28;20234;-69
2022/12/08 12:05:07;;;;;;;3.92;3.63;;;17.50;58.50;;;;;;4982156;28;20275;-70
2022/12/08 12:08:05;;;;;;;4.32;3.92;;;17.50;58.50;;;;;;5009779;28;20247;-70
2022/12/08 12:10:55;;;;;;;3.70;3.40;;;17.40;58.50;;;;;;5002950;28;20287;-70
2022/12/08 12:13:59;;;;;;;4.47;4.07;;;17.50;58.60;;;;;;5008234;28;20203;-70
2022/12/08 12:17:00;;;;;;;4.22;3.80;;;17.50;58.60;;;;;;4986066;28;20212;-69
2022/12/08 12:19:33;;;;;;;3.85;3.55;;;17.40;58.50;;;;;;5011390;28;20183;-70
2022/12/08 12:22:20;;;;;;;3.80;3.40;;;17.50;58.60;;;;;;4986780;28;20191;-70
2022/12/08 12:24:50;;;;;;;4.32;3.92;;;17.50;58.50;;;;;;4993745;28;20193;-69
2022/12/08 12:27:37;;;;;;;3.85;3.42;;;17.40;58.50;;;;;;4996294;28;20214;-69
2022/12/08 12:30:17;;;;;;;4.55;4.15;;;17.50;58.60;;;;;;4979523;28;20196;-69
2022/12/08 12:33:00;;;;;;;3.42;3.13;;;17.50;58.50;;;;;;4988995;28;20186;-70
2022/12/08 12:35:36;;;;;;;3.28;3.08;;;17.50;58.60;;;;;;4990084;28;20195;-68
2022/12/08 12:41:21;;;;;;;3.50;3.20;;;17.50;58.60;;;;;;4993632;28;20188;-69
2022/12/08 12:44:10;;;;;;;3.50;3.20;;;17.50;58.60;;;;;;4994026;28;20276;-70
2022/12/08 12:46:45;;;;;;;3.50;3.20;;;17.50;58.50;;;;;;4966326;28;20263;-69
2022/12/08 12:49:39;;;;;;;3.58;3.28;;;17.50;58.60;;;;;;4993613;28;20176;-69
2022/12/08 12:52:30;;;;;;;3.50;3.20;;;17.50;58.60;;;;;;5012323;28;20643;-69
2022/12/08 12:54:56;;;;;;;3.38;3.08;;;17.50;58.60;;;;;;4993313;28;20196;-69
2022/12/08 12:57:24;;;;;;;3.88;3.13;;;17.50;58.60;;;;;;5003194;28;20220;-69
2022/12/08 12:59:52;;;;;;;3.35;3.05;;;17.50;58.60;;;;;;5012987;28;20211;-69
2022/12/08 13:02:47;;;;;;;3.30;3.00;;;17.50;58.60;;;;;;4979282;28;20192;-69
2022/12/08 13:05:30;;;;;;;4.72;2.95;;;17.50;58.60;;;;;;4977225;28;20186;-69
2022/12/08 13:08:01;;;;;;;2.88;2.67;;;17.40;58.50;;;;;;5000793;28;20208;-70
2022/12/08 13:10:47;;;;;;;3.17;2.92;;;17.50;58.60;;;;;;5006501;28;20203;-69
2022/12/08 13:13:17;;;;;;;3.00;2.80;;;17.50;58.60;;;;;;5012613;28;20164;-69
2022/12/08 13:16:08;;;;;;;2.92;2.72;;;17.40;58.50;;;;;;5008043;28;20216;-69
2022/12/08 13:18:40;;;;;;;3.08;2.78;;;17.50;58.60;;;;;;5011209;28;20178;-70
2022/12/08 13:21:09;;;;;;;2.97;2.78;;;17.40;58.50;;;;;;5015354;28;20640;-69
2022/12/08 13:23:45;;;;;;;2.97;2.67;;;17.50;58.60;;;;;;5003249;28;20192;-70